Time;durP1;ratioP1;P1;durP2;ratioP2;P2;SDS_P1;SDS_P2;PMS_P1;PMS_P2;Temp;Humidity;BMP_temperature;BMP_pressure;BME280_temperature;BME280_humidity;BME280_pressure;Samples;Min_cycle;Max_cycle;Signal;HPM_P1;HPM_P2
2022/07/20 00:02:12;;;;;;;11.85;4.13;;;;;;;;;;4943095;28;20062;-90
2022/07/20 00:04:41;;;;;;;14.35;4.30;;;;;;;;;;4930694;29;20071;-90
2022/07/20 00:07:07;;;;;;;16.95;4.13;;;;;;;;;;4945878;28;20020;-90
2022/07/20 00:12:18;;;;;;;8.60;4.05;;;;;;;;;;4930754;29;20079;-89
2022/07/20 00:14:44;;;;;;;15.30;3.50;;;;;;;;;;4945624;28;20032;-89
2022/07/20 00:17:10;;;;;;;11.50;3.92;;;;;;;;;;4933555;29;20039;-89
2022/07/20 00:19:36;;;;;;;10.57;3.30;;;;;;;;;;4948337;28;20034;-89
2022/07/20 00:22:02;;;;;;;11.00;3.58;;;;;;;;;;4936651;29;20123;-88
2022/07/20 00:24:28;;;;;;;10.13;3.88;;;;;;;;;;4944339;28;20040;-88
2022/07/20 00:26:54;;;;;;;10.75;4.22;;;;;;;;;;4942823;28;20034;-89
2022/07/20 00:29:20;;;;;;;9.55;3.50;;;;;;;;;;4948320;28;20484;-89
2022/07/20 00:31:46;;;;;;;8.07;4.00;;;;;;;;;;4945248;28;20028;-89
2022/07/20 00:34:12;;;;;;;6.20;3.33;;;;;;;;;;4939802;28;20027;-89
2022/07/20 00:36:38;;;;;;;8.57;3.67;;;;;;;;;;4930184;29;20458;-89
2022/07/20 00:39:04;;;;;;;5.85;3.42;;;;;;;;;;4916743;29;20024;-89
2022/07/20 00:41:30;;;;;;;7.00;3.47;;;;;;;;;;4942958;28;20087;-89
2022/07/20 00:43:57;;;;;;;5.72;3.45;;;;;;;;;;4931810;29;20023;-88
2022/07/20 00:46:23;;;;;;;9.15;4.03;;;;;;;;;;4947625;28;20055;-88
2022/07/20 00:48:49;;;;;;;7.65;3.67;;;;;;;;;;4947249;28;20035;-88
2022/07/20 00:51:15;;;;;;;14.38;3.53;;;;;;;;;;4942665;28;20254;-89
2022/07/20 00:53:42;;;;;;;11.23;3.92;;;;;;;;;;4943794;28;20035;-88
2022/07/20 00:56:09;;;;;;;8.85;3.97;;;;;;;;;;4943046;28;20183;-88
2022/07/20 00:58:35;;;;;;;7.55;3.78;;;;;;;;;;4917227;29;20147;-89
2022/07/20 01:01:02;;;;;;;10.90;3.75;;;;;;;;;;4934741;29;21173;-88
2022/07/20 01:03:28;;;;;;;10.18;3.70;;;;;;;;;;4930391;29;20399;-88
2022/07/20 01:05:54;;;;;;;7.47;3.72;;;;;;;;;;4931190;29;20044;-89
2022/07/20 01:08:20;;;;;;;14.63;3.90;;;;;;;;;;4946945;28;20166;-88
2022/07/20 01:10:47;;;;;;;10.02;4.07;;;;;;;;;;4936018;29;20600;-88
2022/07/20 01:13:13;;;;;;;9.18;3.50;;;;;;;;;;4933938;29;20115;-89
2022/07/20 01:15:39;;;;;;;5.65;3.55;;;;;;;;;;4937097;29;20250;-90
2022/07/20 01:18:05;;;;;;;10.02;4.25;;;;;;;;;;4934106;29;20118;-89
2022/07/20 01:20:31;;;;;;;11.38;4.63;;;;;;;;;;4947177;28;20126;-90
2022/07/20 01:22:57;;;;;;;8.82;3.53;;;;;;;;;;4946496;28;20031;-89
2022/07/20 01:25:23;;;;;;;6.57;3.25;;;;;;;;;;4934823;29;20633;-89
2022/07/20 01:27:49;;;;;;;6.57;3.40;;;;;;;;;;4949331;28;20427;-90
2022/07/20 01:30:15;;;;;;;7.80;3.95;;;;;;;;;;4945858;28;20024;-87
2022/07/20 01:32:41;;;;;;;7.35;4.00;;;;;;;;;;4946455;28;20036;-89
2022/07/20 01:35:07;;;;;;;13.10;3.92;;;;;;;;;;4950544;28;20091;-90
2022/07/20 01:37:33;;;;;;;8.00;4.03;;;;;;;;;;4950324;28;20046;-88
2022/07/20 01:40:00;;;;;;;5.90;3.60;;;;;;;;;;4946467;29;20043;-89
2022/07/20 01:42:26;;;;;;;7.78;4.13;;;;;;;;;;4933162;29;20063;-90
2022/07/20 01:44:52;;;;;;;6.50;4.07;;;;;;;;;;4943465;28;20078;-89
2022/07/20 01:47:18;;;;;;;7.63;3.67;;;;;;;;;;4917638;29;20143;-89
2022/07/20 01:49:44;;;;;;;6.88;3.45;;;;;;;;;;4948820;28;20126;-88
2022/07/20 01:52:10;;;;;;;7.70;3.75;;;;;;;;;;4945728;28;20036;-88
2022/07/20 01:54:36;;;;;;;8.90;4.70;;;;;;;;;;4933321;29;20122;-89
2022/07/20 01:57:03;;;;;;;10.23;4.03;;;;;;;;;;4946999;28;20055;-88
2022/07/20 01:59:29;;;;;;;7.35;4.88;;;;;;;;;;4947773;28;20040;-89
2022/07/20 02:01:55;;;;;;;9.55;4.20;;;;;;;;;;4946476;28;20050;-88
2022/07/20 02:04:21;;;;;;;9.00;3.50;;;;;;;;;;4946855;28;20308;-89
2022/07/20 02:06:47;;;;;;;10.13;4.25;;;;;;;;;;4932375;29;20070;-88
2022/07/20 02:09:13;;;;;;;10.95;4.25;;;;;;;;;;4917213;29;20027;-88
2022/07/20 02:11:39;;;;;;;8.20;3.85;;;;;;;;;;4949474;28;20035;-88
2022/07/20 02:14:05;;;;;;;32.28;4.47;;;;;;;;;;4929384;29;20115;-90
2022/07/20 02:16:31;;;;;;;20.45;4.57;;;;;;;;;;4936009;29;20423;-88
2022/07/20 02:18:57;;;;;;;5.13;3.78;;;;;;;;;;4947884;28;20554;-89
2022/07/20 02:21:24;;;;;;;9.35;4.22;;;;;;;;;;4946508;28;20035;-89
2022/07/20 02:23:51;;;;;;;10.73;5.03;;;;;;;;;;4931975;29;20032;-89
2022/07/20 02:26:17;;;;;;;15.30;4.63;;;;;;;;;;4950159;28;20103;-89
2022/07/20 02:28:43;;;;;;;15.18;4.53;;;;;;;;;;4933249;29;20395;-89
2022/07/20 02:31:09;;;;;;;10.15;4.28;;;;;;;;;;4933435;29;20031;-89
2022/07/20 02:33:35;;;;;;;8.15;4.07;;;;;;;;;;4947117;28;20030;-88
2022/07/20 02:36:02;;;;;;;7.32;3.83;;;;;;;;;;4949761;28;20071;-88
2022/07/20 02:38:28;;;;;;;10.98;4.43;;;;;;;;;;4931647;29;20030;-89
2022/07/20 02:40:54;;;;;;;12.15;4.15;;;;;;;;;;4946005;28;20050;-88
2022/07/20 02:43:20;;;;;;;9.93;3.90;;;;;;;;;;4933307;29;20111;-89
2022/07/20 02:45:46;;;;;;;7.25;4.50;;;;;;;;;;4915952;29;20079;-90
2022/07/20 02:48:12;;;;;;;10.82;4.10;;;;;;;;;;4934431;29;20035;-89
2022/07/20 02:50:40;;;;;;;6.55;3.63;;;;;;;;;;4914547;29;20035;-88
2022/07/20 02:53:07;;;;;;;10.50;4.10;;;;;;;;;;4948604;28;20094;-90
2022/07/20 02:55:33;;;;;;;11.50;4.65;;;;;;;;;;4916899;29;20051;-89
2022/07/20 02:57:59;;;;;;;7.47;4.30;;;;;;;;;;4946076;28;20024;-89
2022/07/20 03:00:26;;;;;;;14.85;4.00;;;;;;;;;;4929545;28;20040;-90
2022/07/20 03:02:52;;;;;;;5.88;3.75;;;;;;;;;;4929932;29;20044;-90
2022/07/20 03:05:18;;;;;;;8.95;4.00;;;;;;;;;;4944337;28;20168;-90
2022/07/20 03:07:44;;;;;;;12.55;4.40;;;;;;;;;;4930636;29;20023;-90
2022/07/20 03:10:10;;;;;;;9.07;4.13;;;;;;;;;;4942807;28;20067;-89
2022/07/20 03:12:38;;;;;;;11.38;4.68;;;;;;;;;;4948757;28;20036;-90
2022/07/20 03:15:04;;;;;;;10.10;4.38;;;;;;;;;;4932071;29;20046;-90
2022/07/20 03:17:30;;;;;;;11.55;4.60;;;;;;;;;;4947828;28;20035;-90
2022/07/20 03:19:56;;;;;;;14.88;4.13;;;;;;;;;;4947523;28;20059;-90
2022/07/20 03:22:22;;;;;;;8.25;4.25;;;;;;;;;;4933482;29;20471;-90
2022/07/20 03:24:48;;;;;;;12.95;4.22;;;;;;;;;;4932133;29;20024;-90
2022/07/20 03:27:15;;;;;;;9.25;4.22;;;;;;;;;;4951026;28;20032;-89
2022/07/20 03:29:42;;;;;;;10.23;4.32;;;;;;;;;;4934829;29;20027;-88
2022/07/20 03:32:08;;;;;;;9.43;4.22;;;;;;;;;;4947946;28;20020;-88
2022/07/20 03:34:34;;;;;;;11.82;4.30;;;;;;;;;;4931764;29;20036;-88
2022/07/20 03:37:00;;;;;;;9.75;4.88;;;;;;;;;;4951561;28;20428;-88
2022/07/20 03:39:26;;;;;;;10.32;4.43;;;;;;;;;;4919397;29;20047;-89
2022/07/20 03:41:52;;;;;;;9.82;4.07;;;;;;;;;;4936291;29;20408;-89
2022/07/20 03:44:18;;;;;;;8.98;4.70;;;;;;;;;;4934089;29;20498;-89
2022/07/20 03:46:44;;;;;;;5.97;4.50;;;;;;;;;;4920596;29;20463;-89
2022/07/20 03:49:17;;;;;;;13.50;4.20;;;;;;;;;;4933430;29;20063;-89
2022/07/20 03:51:43;;;;;;;6.75;4.32;;;;;;;;;;4916664;29;20487;-89
2022/07/20 03:54:16;;;;;;;11.10;5.15;;;;;;;;;;4944651;28;20686;-90
2022/07/20 03:56:42;;;;;;;6.97;3.88;;;;;;;;;;4947677;28;20421;-88
2022/07/20 03:59:09;;;;;;;13.35;4.90;;;;;;;;;;4914210;29;20032;-89
2022/07/20 04:01:35;;;;;;;7.78;4.00;;;;;;;;;;4946482;28;20050;-89
2022/07/20 04:04:01;;;;;;;12.43;4.28;;;;;;;;;;4914432;29;20175;-88
2022/07/20 04:06:28;;;;;;;7.70;4.15;;;;;;;;;;4932767;29;20534;-89
2022/07/20 04:08:54;;;;;;;13.10;4.07;;;;;;;;;;4913497;29;20032;-89
2022/07/20 04:11:20;;;;;;;9.57;4.43;;;;;;;;;;4930044;29;20391;-89
2022/07/20 04:13:46;;;;;;;10.02;4.70;;;;;;;;;;4929918;29;20040;-89
2022/07/20 04:16:12;;;;;;;12.18;5.15;;;;;;;;;;4929976;29;20542;-89
2022/07/20 04:18:38;;;;;;;8.77;5.07;;;;;;;;;;4929233;29;20538;-89
2022/07/20 04:21:04;;;;;;;13.75;4.38;;;;;;;;;;4911593;29;20035;-89
2022/07/20 04:23:31;;;;;;;10.00;4.18;;;;;;;;;;4944137;28;20496;-89
2022/07/20 04:25:57;;;;;;;7.88;4.13;;;;;;;;;;4941504;29;20484;-89
2022/07/20 04:28:23;;;;;;;12.35;4.22;;;;;;;;;;4951810;28;20038;-89
2022/07/20 04:30:49;;;;;;;11.40;4.10;;;;;;;;;;4934336;29;20502;-88
2022/07/20 04:33:15;;;;;;;11.77;4.20;;;;;;;;;;4945903;28;20043;-89
2022/07/20 04:35:41;;;;;;;12.98;3.92;;;;;;;;;;4935218;29;20031;-89
2022/07/20 04:38:07;;;;;;;7.20;4.30;;;;;;;;;;4946892;28;20031;-88
2022/07/20 04:40:33;;;;;;;16.02;3.83;;;;;;;;;;4948355;28;20035;-89
2022/07/20 04:42:59;;;;;;;15.60;4.78;;;;;;;;;;4935992;29;20075;-89
2022/07/20 04:45:25;;;;;;;11.85;4.30;;;;;;;;;;4948404;28;20407;-89
2022/07/20 04:47:51;;;;;;;8.60;4.97;;;;;;;;;;4932293;29;20554;-90
2022/07/20 04:50:17;;;;;;;5.45;4.30;;;;;;;;;;4946709;28;20146;-89
2022/07/20 04:52:43;;;;;;;13.23;4.07;;;;;;;;;;4934263;29;20102;-89
2022/07/20 04:55:09;;;;;;;6.45;4.28;;;;;;;;;;4949310;28;20115;-88
2022/07/20 04:57:35;;;;;;;15.98;4.50;;;;;;;;;;4938517;29;20458;-88
2022/07/20 05:00:01;;;;;;;6.93;4.20;;;;;;;;;;4929396;29;20060;-88
2022/07/20 05:02:27;;;;;;;11.65;4.60;;;;;;;;;;4943545;28;20760;-89
2022/07/20 05:04:53;;;;;;;8.32;3.85;;;;;;;;;;4947483;28;20038;-88
2022/07/20 05:07:19;;;;;;;17.98;5.68;;;;;;;;;;4948143;28;20036;-90
2022/07/20 05:09:45;;;;;;;14.27;4.35;;;;;;;;;;4916123;29;20829;-90
2022/07/20 05:12:11;;;;;;;15.82;4.45;;;;;;;;;;4948424;28;20035;-89
2022/07/20 05:14:37;;;;;;;18.65;4.53;;;;;;;;;;4936618;29;20039;-88
2022/07/20 05:17:03;;;;;;;30.55;5.00;;;;;;;;;;4933069;29;20436;-89
2022/07/20 05:19:29;;;;;;;34.90;4.65;;;;;;;;;;4934178;29;20230;-88
2022/07/20 05:21:57;;;;;;;19.08;4.30;;;;;;;;;;4931960;29;20031;-90
2022/07/20 05:24:23;;;;;;;16.85;4.38;;;;;;;;;;4936808;29;20147;-90
2022/07/20 05:26:49;;;;;;;21.20;4.93;;;;;;;;;;4934540;29;20067;-92
2022/07/20 05:29:15;;;;;;;8.75;3.95;;;;;;;;;;4918846;29;20571;-89
2022/07/20 05:31:41;;;;;;;8.32;3.78;;;;;;;;;;4932546;29;20027;-89
2022/07/20 05:34:07;;;;;;;6.85;4.00;;;;;;;;;;4929664;29;20131;-89
2022/07/20 05:36:33;;;;;;;7.05;4.03;;;;;;;;;;4926688;29;20043;-89
2022/07/20 05:39:00;;;;;;;5.47;3.63;;;;;;;;;;4910330;29;20523;-88
2022/07/20 05:41:26;;;;;;;8.88;3.75;;;;;;;;;;4948578;28;20034;-89
2022/07/20 05:43:52;;;;;;;9.57;4.00;;;;;;;;;;4945651;28;20082;-88
2022/07/20 05:46:18;;;;;;;10.82;4.35;;;;;;;;;;4914224;29;20042;-89
2022/07/20 05:48:44;;;;;;;8.43;4.32;;;;;;;;;;4944693;28;20705;-88
2022/07/20 05:51:10;;;;;;;9.93;4.32;;;;;;;;;;4946005;28;20044;-89
2022/07/20 05:53:36;;;;;;;8.57;4.57;;;;;;;;;;4942058;28;20087;-88
2022/07/20 05:56:02;;;;;;;6.68;3.90;;;;;;;;;;4929808;29;20284;-89
2022/07/20 05:58:28;;;;;;;8.52;4.53;;;;;;;;;;4934789;29;20055;-89
2022/07/20 06:00:54;;;;;;;12.27;4.07;;;;;;;;;;4933565;28;20094;-89
2022/07/20 06:03:20;;;;;;;9.45;3.67;;;;;;;;;;4951391;28;20059;-90
2022/07/20 06:05:46;;;;;;;14.18;4.13;;;;;;;;;;4932352;29;20070;-90
2022/07/20 06:08:12;;;;;;;7.20;4.32;;;;;;;;;;4942429;28;20123;-90
2022/07/20 06:10:38;;;;;;;8.25;4.05;;;;;;;;;;4949287;28;20032;-89
2022/07/20 06:13:04;;;;;;;10.48;4.75;;;;;;;;;;4948336;28;20468;-91
2022/07/20 06:15:30;;;;;;;10.50;5.38;;;;;;;;;;4945897;28;20492;-89
2022/07/20 06:17:57;;;;;;;14.52;4.30;;;;;;;;;;4932180;29;20031;-90
2022/07/20 06:20:24;;;;;;;38.38;6.03;;;;;;;;;;4947345;28;20103;-89
2022/07/20 06:22:51;;;;;;;88.95;6.13;;;;;;;;;;4931044;28;20436;-89
2022/07/20 06:25:18;;;;;;;25.08;5.88;;;;;;;;;;4946518;28;20038;-90
2022/07/20 06:27:44;;;;;;;9.82;4.72;;;;;;;;;;4936052;29;20026;-90
2022/07/20 06:30:11;;;;;;;10.18;4.57;;;;;;;;;;4949589;28;20035;-89
2022/07/20 06:32:38;;;;;;;7.55;4.45;;;;;;;;;;4941003;28;20059;-90
2022/07/20 06:35:05;;;;;;;11.80;5.30;;;;;;;;;;4916724;29;20077;-90
2022/07/20 06:37:31;;;;;;;16.55;4.40;;;;;;;;;;4916336;29;20034;-90
2022/07/20 06:39:57;;;;;;;19.73;4.30;;;;;;;;;;4943631;28;20071;-92
2022/07/20 06:42:23;;;;;;;17.30;4.60;;;;;;;;;;4917699;29;20039;-90
2022/07/20 06:44:50;;;;;;;12.80;4.15;;;;;;;;;;4932431;29;20728;-90
2022/07/20 06:47:16;;;;;;;15.23;4.35;;;;;;;;;;4939280;28;20062;-91
2022/07/20 06:49:43;;;;;;;11.75;4.43;;;;;;;;;;4929497;29;20039;-90
2022/07/20 06:52:08;;;;;;;13.07;4.28;;;;;;;;;;4947371;28;20118;-91
2022/07/20 06:54:34;;;;;;;10.90;4.65;;;;;;;;;;4932579;29;20118;-90
2022/07/20 06:57:01;;;;;;;14.23;3.97;;;;;;;;;;4915985;29;20067;-91
2022/07/20 06:59:27;;;;;;;13.13;5.35;;;;;;;;;;4914024;29;20122;-90
2022/07/20 07:01:53;;;;;;;11.82;5.05;;;;;;;;;;4930173;28;20194;-91
2022/07/20 07:04:19;;;;;;;8.15;4.60;;;;;;;;;;4928918;29;20490;-91
2022/07/20 07:06:45;;;;;;;9.00;4.72;;;;;;;;;;4945243;28;20057;-89
2022/07/20 07:09:11;;;;;;;7.22;4.70;;;;;;;;;;4946374;28;20046;-90
2022/07/20 07:11:38;;;;;;;9.90;4.60;;;;;;;;;;4940236;29;20027;-92
2022/07/20 07:14:04;;;;;;;10.45;4.15;;;;;;;;;;4925575;29;20024;-91
2022/07/20 07:16:31;;;;;;;10.75;5.18;;;;;;;;;;4938281;28;20585;-90
2022/07/20 07:18:57;;;;;;;13.40;5.32;;;;;;;;;;4944048;28;20091;-90
2022/07/20 07:21:23;;;;;;;7.65;5.00;;;;;;;;;;4943734;28;20063;-91
2022/07/20 07:23:52;;;;;;;9.63;5.05;;;;;;;;;;4927430;29;20059;-90
2022/07/20 07:26:19;;;;;;;13.32;4.93;;;;;;;;;;4936981;28;20043;-92
2022/07/20 07:28:45;;;;;;;12.13;5.35;;;;;;;;;;4928384;29;20824;-89
2022/07/20 07:31:11;;;;;;;10.90;5.13;;;;;;;;;;4938784;28;20030;-89
2022/07/20 07:33:37;;;;;;;5.80;4.32;;;;;;;;;;4944382;28;20054;-90
2022/07/20 07:36:04;;;;;;;6.75;4.95;;;;;;;;;;4944568;28;20122;-91
2022/07/20 07:38:30;;;;;;;15.07;5.68;;;;;;;;;;4930625;29;20077;-90
2022/07/20 07:40:56;;;;;;;8.75;4.85;;;;;;;;;;4913517;29;20036;-91
2022/07/20 07:43:22;;;;;;;15.95;5.35;;;;;;;;;;4946342;28;20032;-90
2022/07/20 07:45:48;;;;;;;14.00;6.00;;;;;;;;;;4913194;29;20035;-90
2022/07/20 07:48:14;;;;;;;13.25;5.75;;;;;;;;;;4915342;29;20034;-89
2022/07/20 07:50:41;;;;;;;14.48;6.07;;;;;;;;;;4938444;28;20136;-89
2022/07/20 07:53:08;;;;;;;10.40;5.68;;;;;;;;;;4945356;28;20035;-89
2022/07/20 07:55:34;;;;;;;17.95;5.55;;;;;;;;;;4927570;29;20028;-90
2022/07/20 07:58:00;;;;;;;13.35;6.50;;;;;;;;;;4916008;29;20040;-91
2022/07/20 08:00:27;;;;;;;12.40;6.38;;;;;;;;;;4948788;28;20027;-89
2022/07/20 08:02:54;;;;;;;17.33;6.75;;;;;;;;;;4912973;29;20052;-89
2022/07/20 08:05:20;;;;;;;11.73;6.32;;;;;;;;;;4930126;29;20043;-90
2022/07/20 08:07:46;;;;;;;11.82;6.18;;;;;;;;;;4944074;28;20039;-89
2022/07/20 08:10:13;;;;;;;13.90;7.40;;;;;;;;;;4929461;29;20119;-89
2022/07/20 08:12:39;;;;;;;14.15;6.93;;;;;;;;;;4946280;28;20032;-89
2022/07/20 08:15:05;;;;;;;20.95;7.93;;;;;;;;;;4932615;29;20039;-90
2022/07/20 08:17:32;;;;;;;15.13;8.00;;;;;;;;;;4944648;28;20089;-89
2022/07/20 08:19:58;;;;;;;12.98;7.72;;;;;;;;;;4931610;29;20046;-89
2022/07/20 08:22:23;;;;;;;23.10;8.88;;;;;;;;;;4928920;29;20039;-89
2022/07/20 08:24:50;;;;;;;18.33;8.00;;;;;;;;;;4913805;29;21312;-88
2022/07/20 08:27:16;;;;;;;16.75;8.55;;;;;;;;;;4946291;28;20079;-88
2022/07/20 08:29:42;;;;;;;19.95;8.80;;;;;;;;;;4931264;29;20038;-89
2022/07/20 08:32:08;;;;;;;24.83;8.68;;;;;;;;;;4940130;28;20107;-88
2022/07/20 08:34:34;;;;;;;28.15;8.38;;;;;;;;;;4939933;28;20437;-88
2022/07/20 08:37:00;;;;;;;21.45;10.35;;;;;;;;;;4941581;28;20989;-88
2022/07/20 08:39:26;;;;;;;28.67;10.45;;;;;;;;;;4941375;28;20582;-89
2022/07/20 08:41:53;;;;;;;22.60;9.20;;;;;;;;;;4943907;28;20071;-89
2022/07/20 08:44:19;;;;;;;16.38;9.07;;;;;;;;;;4931835;29;20063;-89
2022/07/20 08:46:45;;;;;;;25.55;10.77;;;;;;;;;;4914037;29;20043;-89
2022/07/20 08:49:14;;;;;;;23.63;10.38;;;;;;;;;;4928471;29;20065;-89
2022/07/20 08:51:41;;;;;;;23.08;11.00;;;;;;;;;;4929525;29;20036;-89
2022/07/20 08:54:07;;;;;;;23.60;12.88;;;;;;;;;;4923134;29;20468;-89
2022/07/20 08:56:33;;;;;;;25.77;13.25;;;;;;;;;;4914067;29;20040;-89
2022/07/20 08:58:59;;;;;;;27.55;12.68;;;;;;;;;;4913417;29;20035;-89
2022/07/20 09:01:25;;;;;;;34.40;14.38;;;;;;;;;;4907887;28;20043;-88
2022/07/20 09:04:05;;;;;;;26.05;14.82;;;;;;;;;;4941574;28;20031;-89
2022/07/20 09:06:31;;;;;;;29.98;15.23;;;;;;;;;;4941385;28;20126;-89
2022/07/20 09:09:01;;;;;;;26.98;14.85;;;;;;;;;;4925737;29;20131;-89
2022/07/20 09:11:27;;;;;;;25.65;14.38;;;;;;;;;;4941492;28;20574;-89
2022/07/20 09:13:53;;;;;;;39.42;16.65;;;;;;;;;;4944194;28;20024;-89
2022/07/20 09:16:48;;;;;;;26.35;14.20;;;;;;;;;;4910089;29;20142;-89
2022/07/20 09:19:17;;;;;;;32.03;14.93;;;;;;;;;;4929760;29;20039;-89
2022/07/20 09:21:49;;;;;;;29.55;16.05;;;;;;;;;;4928420;29;20154;-89
2022/07/20 09:24:17;;;;;;;32.35;16.15;;;;;;;;;;4928398;29;20043;-89
2022/07/20 09:26:43;;;;;;;28.23;15.88;;;;;;;;;;4912255;29;20027;-89
2022/07/20 09:29:09;;;;;;;28.98;17.15;;;;;;;;;;4928342;29;20559;-89
2022/07/20 09:31:38;;;;;;;30.33;18.88;;;;;;;;;;4933045;29;20032;-89
2022/07/20 09:34:06;;;;;;;36.22;17.33;;;;;;;;;;4943419;28;20230;-89
2022/07/20 09:36:34;;;;;;;35.13;17.30;;;;;;;;;;4931891;29;20043;-89
2022/07/20 09:39:15;;;;;;;39.70;20.63;;;;;;;;;;4941088;28;20035;-89
2022/07/20 09:41:43;;;;;;;53.10;22.25;;;;;;;;;;4939526;28;20106;-90
2022/07/20 09:44:10;;;;;;;39.75;19.08;;;;;;;;;;4909434;29;20086;-89
2022/07/20 09:46:37;;;;;;;33.58;20.13;;;;;;;;;;4940091;28;20039;-89
2022/07/20 09:49:07;;;;;;;40.03;19.73;;;;;;;;;;4931006;29;20399;-89
2022/07/20 09:51:37;;;;;;;39.97;19.52;;;;;;;;;;4943600;28;20023;-90
2022/07/20 09:54:04;;;;;;;35.38;18.80;;;;;;;;;;4944360;28;20049;-90
2022/07/20 09:56:31;;;;;;;39.97;20.55;;;;;;;;;;4932621;29;20039;-89
2022/07/20 09:58:58;;;;;;;36.40;20.25;;;;;;;;;;4931713;29;20416;-89
2022/07/20 10:01:25;;;;;;;44.08;21.13;;;;;;;;;;4924114;28;20399;-89
2022/07/20 10:03:52;;;;;;;38.45;20.95;;;;;;;;;;4928313;29;20042;-89
2022/07/20 10:06:19;;;;;;;33.72;18.38;;;;;;;;;;4940333;28;20135;-89
2022/07/20 10:08:46;;;;;;;32.47;18.73;;;;;;;;;;4941595;28;20114;-88
2022/07/20 10:11:12;;;;;;;32.53;18.70;;;;;;;;;;4930711;29;20032;-89
2022/07/20 10:13:40;;;;;;;31.70;20.00;;;;;;;;;;4941435;28;20609;-89
2022/07/20 10:16:10;;;;;;;31.50;18.20;;;;;;;;;;4929226;29;20054;-89
2022/07/20 10:18:36;;;;;;;28.20;18.92;;;;;;;;;;4929296;29;20053;-89
2022/07/20 10:21:22;;;;;;;37.45;18.38;;;;;;;;;;4930737;29;20059;-88
2022/07/20 10:24:09;;;;;;;31.38;16.85;;;;;;;;;;4938271;28;20419;-89
2022/07/20 10:26:35;;;;;;;26.92;15.48;;;;;;;;;;4932857;29;20020;-89
2022/07/20 10:29:01;;;;;;;28.15;16.13;;;;;;;;;;4947511;28;20126;-89
2022/07/20 10:31:27;;;;;;;29.00;15.55;;;;;;;;;;4932618;29;20114;-90
2022/07/20 10:33:53;;;;;;;24.83;14.85;;;;;;;;;;4912688;29;20512;-90
2022/07/20 10:39:23;;;;;;;28.25;15.70;;;;;;;;;;4930211;29;20074;-90
2022/07/20 10:42:08;;;;;;;28.97;15.07;;;;;;;;;;4936688;28;20044;-89
2022/07/20 10:44:35;;;;;;;23.75;15.32;;;;;;;;;;4940994;28;20799;-90
2022/07/20 10:47:01;;;;;;;24.35;15.63;;;;;;;;;;4944102;28;20047;-90
2022/07/20 10:49:45;;;;;;;28.73;16.30;;;;;;;;;;4914263;29;20043;-90
2022/07/20 10:52:28;;;;;;;24.00;14.77;;;;;;;;;;4943856;28;20051;-90
2022/07/20 10:54:54;;;;;;;25.77;13.85;;;;;;;;;;4946774;28;20518;-91
2022/07/20 10:57:20;;;;;;;24.15;13.48;;;;;;;;;;4917853;29;20027;-89
2022/07/20 10:59:46;;;;;;;26.05;13.85;;;;;;;;;;4930347;29;20504;-91
2022/07/20 11:02:13;;;;;;;23.10;12.23;;;;;;;;;;4941283;28;20066;-90
2022/07/20 11:04:42;;;;;;;25.25;12.73;;;;;;;;;;4942692;28;20035;-90
2022/07/20 11:07:08;;;;;;;16.70;11.77;;;;;;;;;;4913610;29;20032;-91
2022/07/20 11:09:34;;;;;;;17.05;11.70;;;;;;;;;;4910586;29;20035;-91
2022/07/20 11:12:01;;;;;;;22.85;11.32;;;;;;;;;;4931070;29;20027;-91
2022/07/20 11:14:27;;;;;;;26.73;10.73;;;;;;;;;;4943698;28;20059;-90
2022/07/20 11:16:56;;;;;;;23.45;11.10;;;;;;;;;;4917746;29;20031;-90
2022/07/20 11:19:22;;;;;;;28.15;10.68;;;;;;;;;;4927752;29;20473;-90
2022/07/20 11:21:48;;;;;;;17.55;10.07;;;;;;;;;;4939894;28;20703;-90
2022/07/20 11:24:23;;;;;;;18.45;11.13;;;;;;;;;;4944035;28;20074;-90
2022/07/20 11:26:49;;;;;;;16.90;11.25;;;;;;;;;;4939253;28;20070;-90
2022/07/20 11:29:16;;;;;;;22.45;10.98;;;;;;;;;;4938446;28;20484;-89
2022/07/20 11:31:42;;;;;;;16.05;10.60;;;;;;;;;;4924805;29;20027;-90
2022/07/20 11:34:08;;;;;;;21.42;10.43;;;;;;;;;;4927068;29;20115;-90
2022/07/20 11:36:35;;;;;;;24.98;11.05;;;;;;;;;;4911838;29;20027;-90
2022/07/20 11:39:05;;;;;;;25.85;11.20;;;;;;;;;;4909263;29;20032;-90
2022/07/20 11:41:34;;;;;;;20.92;11.00;;;;;;;;;;4938767;28;20075;-90
2022/07/20 11:44:01;;;;;;;18.15;10.38;;;;;;;;;;4941728;28;20503;-90
2022/07/20 11:46:28;;;;;;;20.15;10.82;;;;;;;;;;4938002;28;20166;-90
2022/07/20 11:49:05;;;;;;;22.05;10.73;;;;;;;;;;4937997;28;20890;-90
2022/07/20 11:51:32;;;;;;;21.25;10.82;;;;;;;;;;4940838;28;20032;-90
2022/07/20 11:53:58;;;;;;;21.98;9.98;;;;;;;;;;4914792;29;20027;-89
2022/07/20 11:56:27;;;;;;;18.13;11.15;;;;;;;;;;4940812;28;20027;-90
2022/07/20 11:58:54;;;;;;;16.15;11.07;;;;;;;;;;4942142;28;20038;-89
2022/07/20 12:01:29;;;;;;;18.00;8.95;;;;;;;;;;4941394;28;20568;-90
2022/07/20 12:04:03;;;;;;;20.85;10.82;;;;;;;;;;4911237;29;20042;-90
2022/07/20 12:06:31;;;;;;;16.25;10.75;;;;;;;;;;4927475;29;20035;-90
2022/07/20 12:09:07;;;;;;;28.70;9.38;;;;;;;;;;4926635;29;20031;-89
2022/07/20 12:11:33;;;;;;;18.95;9.15;;;;;;;;;;4945939;28;20035;-90
2022/07/20 12:13:59;;;;;;;18.13;8.80;;;;;;;;;;4930408;29;20030;-90
2022/07/20 12:16:36;;;;;;;14.13;8.60;;;;;;;;;;4938283;28;20032;-90
2022/07/20 12:19:04;;;;;;;11.85;8.63;;;;;;;;;;4940176;28;20040;-89
2022/07/20 12:21:39;;;;;;;17.88;8.88;;;;;;;;;;4929636;29;20478;-90
2022/07/20 12:24:05;;;;;;;15.15;8.48;;;;;;;;;;4943722;28;20036;-90
2022/07/20 12:26:35;;;;;;;14.45;7.35;;;;;;;;;;4927356;29;20044;-89
2022/07/20 12:29:20;;;;;;;18.70;6.50;;;;;;;;;;4927658;29;20027;-90
2022/07/20 12:32:02;;;;;;;10.55;7.28;;;;;;;;;;4941723;28;20091;-90
2022/07/20 12:34:28;;;;;;;17.38;7.88;;;;;;;;;;4926448;29;20029;-90
2022/07/20 12:36:54;;;;;;;8.35;6.70;;;;;;;;;;4928139;29;20609;-90
2022/07/20 12:39:37;;;;;;;14.45;7.50;;;;;;;;;;4939758;28;20036;-89
2022/07/20 12:42:11;;;;;;;16.85;8.82;;;;;;;;;;4947946;28;20028;-89
2022/07/20 12:44:38;;;;;;;10.88;8.00;;;;;;;;;;4948297;28;20476;-89
2022/07/20 12:47:05;;;;;;;14.63;8.20;;;;;;;;;;4949093;28;20241;-89
2022/07/20 12:49:31;;;;;;;16.60;8.40;;;;;;;;;;4929915;29;20492;-89
2022/07/20 12:51:58;;;;;;;12.45;8.50;;;;;;;;;;4933391;29;20032;-90
2022/07/20 12:54:24;;;;;;;15.63;8.95;;;;;;;;;;4934304;29;20024;-89
2022/07/20 12:56:51;;;;;;;17.35;8.30;;;;;;;;;;4912050;29;20039;-89
2022/07/20 12:59:17;;;;;;;17.42;8.27;;;;;;;;;;4929754;29;20428;-90
2022/07/20 13:01:48;;;;;;;21.30;8.88;;;;;;;;;;4930231;29;20795;-89
2022/07/20 13:04:14;;;;;;;13.93;8.40;;;;;;;;;;4944684;28;20114;-89
2022/07/20 13:06:40;;;;;;;16.15;8.48;;;;;;;;;;4911281;29;20597;-89
2022/07/20 13:09:06;;;;;;;16.38;9.13;;;;;;;;;;4912775;29;20067;-89
2022/07/20 13:11:33;;;;;;;16.00;10.02;;;;;;;;;;4926037;29;20480;-90
2022/07/20 13:13:59;;;;;;;17.45;9.23;;;;;;;;;;4944475;28;20026;-89
2022/07/20 13:16:25;;;;;;;16.27;9.43;;;;;;;;;;4942887;28;20035;-89
2022/07/20 13:18:51;;;;;;;15.25;10.18;;;;;;;;;;4945212;28;20039;-89
2022/07/20 13:21:17;;;;;;;16.73;9.70;;;;;;;;;;4916215;29;20032;-89
2022/07/20 13:23:43;;;;;;;14.27;8.65;;;;;;;;;;4931541;29;20039;-89
2022/07/20 13:26:09;;;;;;;13.77;8.57;;;;;;;;;;4944417;28;20035;-89
2022/07/20 13:28:35;;;;;;;15.20;8.90;;;;;;;;;;4930570;29;20024;-89
2022/07/20 13:31:01;;;;;;;18.42;9.48;;;;;;;;;;4915212;29;20036;-89
2022/07/20 13:33:27;;;;;;;13.88;8.50;;;;;;;;;;4943783;28;20372;-89
2022/07/20 13:35:54;;;;;;;15.27;8.93;;;;;;;;;;4928168;29;20028;-90
2022/07/20 13:38:20;;;;;;;11.68;8.15;;;;;;;;;;4906295;29;20494;-90
2022/07/20 13:40:46;;;;;;;15.23;9.40;;;;;;;;;;4937422;28;20023;-89
2022/07/20 13:43:12;;;;;;;18.00;8.35;;;;;;;;;;4944747;28;20050;-89
2022/07/20 13:45:38;;;;;;;15.13;8.45;;;;;;;;;;4942241;28;20059;-89
2022/07/20 13:48:05;;;;;;;18.88;8.40;;;;;;;;;;4918305;29;20573;-89
2022/07/20 13:50:31;;;;;;;8.73;7.40;;;;;;;;;;4926826;29;20484;-89
2022/07/20 13:52:57;;;;;;;12.65;7.82;;;;;;;;;;4926930;29;20024;-90
2022/07/20 13:55:23;;;;;;;12.43;7.82;;;;;;;;;;4945884;28;20032;-89
2022/07/20 13:57:49;;;;;;;17.73;8.02;;;;;;;;;;4931676;29;20068;-89
2022/07/20 14:00:16;;;;;;;11.70;7.30;;;;;;;;;;4931535;29;20114;-90
2022/07/20 14:02:42;;;;;;;13.20;7.90;;;;;;;;;;4944864;28;21514;-90
2022/07/20 14:05:08;;;;;;;14.18;6.72;;;;;;;;;;4941044;28;20678;-91
2022/07/20 14:07:35;;;;;;;10.57;6.47;;;;;;;;;;4929476;29;20488;-90
2022/07/20 14:10:01;;;;;;;11.02;7.38;;;;;;;;;;4945133;28;20032;-89
2022/07/20 14:12:27;;;;;;;10.63;6.25;;;;;;;;;;4945989;28;20391;-89
2022/07/20 14:14:53;;;;;;;17.17;6.93;;;;;;;;;;4929908;29;20384;-90
2022/07/20 14:17:19;;;;;;;12.38;6.07;;;;;;;;;;4910766;29;20058;-90
2022/07/20 14:19:45;;;;;;;13.73;6.60;;;;;;;;;;4937942;28;20031;-90
2022/07/20 14:22:11;;;;;;;8.32;5.88;;;;;;;;;;4942705;28;20182;-89
2022/07/20 14:24:37;;;;;;;7.10;5.97;;;;;;;;;;4933414;29;20110;-89
2022/07/20 14:27:07;;;;;;;16.23;6.40;;;;;;;;;;4944226;28;20148;-89
2022/07/20 14:29:34;;;;;;;10.90;5.82;;;;;;;;;;4913265;29;20031;-90
2022/07/20 14:32:00;;;;;;;15.73;6.68;;;;;;;;;;4927946;29;20570;-92
2022/07/20 14:34:26;;;;;;;9.40;5.90;;;;;;;;;;4941368;28;20024;-89
2022/07/20 14:36:52;;;;;;;9.30;6.05;;;;;;;;;;4929029;29;20042;-90